sensor_id;sensor_type;location;lat;lon;timestamp;pressure;altitude;pressure_sealevel;temperature;humidity
71059;BME280;70265;47.576;19.270;2023-09-19T00:01:00;98349.91;;;21.02;71.24
71059;BME280;70265;47.576;19.270;2023-09-19T00:02:07;98350.94;;;21.01;71.49
71059;BME280;70265;47.576;19.270;2023-09-19T00:03:09;98353.25;;;20.97;71.23
71059;BME280;70265;47.576;19.270;2023-09-19T00:04:12;98353.03;;;20.99;71.33
71059;BME280;70265;47.576;19.270;2023-09-19T00:05:16;98347.69;;;20.99;71.21
71059;BME280;70265;47.576;19.270;2023-09-19T00:06:17;98349.19;;;20.95;71.65
71059;BME280;70265;47.576;19.270;2023-09-19T00:07:21;98349.66;;;20.92;71.71
71059;BME280;70265;47.576;19.270;2023-09-19T00:08:23;98348.38;;;20.94;71.76
71059;BME280;70265;47.576;19.270;2023-09-19T00:09:28;98349.06;;;20.90;71.88
71059;BME280;70265;47.576;19.270;2023-09-19T00:10:29;98349.66;;;20.92;71.89
71059;BME280;70265;47.576;19.270;2023-09-19T00:11:35;98349.06;;;20.90;72.00
71059;BME280;70265;47.576;19.270;2023-09-19T00:12:36;98348.50;;;20.88;72.07
71059;BME280;70265;47.576;19.270;2023-09-19T00:13:42;98341.53;;;20.87;72.35
71059;BME280;70265;47.576;19.270;2023-09-19T00:14:44;98343.38;;;20.86;72.36
71059;BME280;70265;47.576;19.270;2023-09-19T00:15:48;98348.16;;;20.84;72.28
71059;BME280;70265;47.576;19.270;2023-09-19T00:16:49;98347.13;;;20.85;72.42
71059;BME280;70265;47.576;19.270;2023-09-19T00:17:55;98346.28;;;20.85;72.45
71059;BME280;70265;47.576;19.270;2023-09-19T00:18:56;98353.47;;;20.84;72.46
71059;BME280;70265;47.576;19.270;2023-09-19T00:20:12;98353.13;;;20.80;72.42
71059;BME280;70265;47.576;19.270;2023-09-19T00:21:13;98332.63;;;20.81;72.56
71059;BME280;70265;47.576;19.270;2023-09-19T00:22:17;98338.50;;;20.83;72.25
71059;BME280;70265;47.576;19.270;2023-09-19T00:23:19;98340.00;;;20.79;72.56
71059;BME280;70265;47.576;19.270;2023-09-19T00:24:25;98342.13;;;20.77;72.50
71059;BME280;70265;47.576;19.270;2023-09-19T00:25:26;98339.66;;;20.75;72.94
71059;BME280;70265;47.576;19.270;2023-09-19T00:26:31;98343.59;;;20.73;72.94
71059;BME280;70265;47.576;19.270;2023-09-19T00:27:32;98340.13;;;20.72;72.99
71059;BME280;70265;47.576;19.270;2023-09-19T00:28:43;98340.13;;;20.72;72.84
71059;BME280;70265;47.576;19.270;2023-09-19T00:29:44;98338.53;;;20.71;72.99
71059;BME280;70265;47.576;19.270;2023-09-19T00:30:47;98336.88;;;20.70;73.03
71059;BME280;70265;47.576;19.270;2023-09-19T00:31:50;98336.31;;;20.68;73.23
71059;BME280;70265;47.576;19.270;2023-09-19T00:32:54;98336.31;;;20.68;73.35
71059;BME280;70265;47.576;19.270;2023-09-19T00:33:55;98334.09;;;20.65;73.63
71059;BME280;70265;47.576;19.270;2023-09-19T00:35:11;98338.16;;;20.68;72.94
71059;BME280;70265;47.576;19.270;2023-09-19T00:36:12;98337.34;;;20.67;73.08
71059;BME280;70265;47.576;19.270;2023-09-19T00:37:15;98336.75;;;20.65;73.13
71059;BME280;70265;47.576;19.270;2023-09-19T00:38:19;98332.25;;;20.66;72.96
71059;BME280;70265;47.576;19.270;2023-09-19T00:39:23;98334.91;;;20.66;73.30
71059;BME280;70265;47.576;19.270;2023-09-19T00:40:26;98331.41;;;20.65;73.55
71059;BME280;70265;47.576;19.270;2023-09-19T00:41:34;98333.53;;;20.63;73.59
71059;BME280;70265;47.576;19.270;2023-09-19T00:42:36;98332.59;;;20.58;73.83
71059;BME280;70265;47.576;19.270;2023-09-19T00:43:43;98329.69;;;20.59;74.03
71059;BME280;70265;47.576;19.270;2023-09-19T00:44:45;98323.78;;;20.57;73.54
71059;BME280;70265;47.576;19.270;2023-09-19T00:45:53;98333.38;;;20.58;73.55
71059;BME280;70265;47.576;19.270;2023-09-19T00:46:55;98333.38;;;20.58;73.88
71059;BME280;70265;47.576;19.270;2023-09-19T00:48:01;98336.28;;;20.57;73.89
71059;BME280;70265;47.576;19.270;2023-09-19T00:49:04;98331.78;;;20.57;73.65
71059;BME280;70265;47.576;19.270;2023-09-19T00:50:09;98334.66;;;20.56;73.79
71059;BME280;70265;47.576;19.270;2023-09-19T00:51:12;98322.72;;;20.58;73.64
71059;BME280;70265;47.576;19.270;2023-09-19T00:52:19;98331.78;;;20.57;73.82
71059;BME280;70265;47.576;19.270;2023-09-19T00:53:22;98328.28;;;20.57;73.55
71059;BME280;70265;47.576;19.270;2023-09-19T00:54:28;98323.19;;;20.55;73.62
71059;BME280;70265;47.576;19.270;2023-09-19T00:55:30;98338.72;;;20.58;73.85
71059;BME280;70265;47.576;19.270;2023-09-19T00:56:35;98330.38;;;20.55;73.90
71059;BME280;70265;47.576;19.270;2023-09-19T00:57:38;98323.44;;;20.54;74.00
71059;BME280;70265;47.576;19.270;2023-09-19T00:58:45;98326.91;;;20.54;73.98
71059;BME280;70265;47.576;19.270;2023-09-19T00:59:48;98332.25;;;20.54;73.91
71059;BME280;70265;47.576;19.270;2023-09-19T01:00:53;98327.47;;;20.56;73.81
71059;BME280;70265;47.576;19.270;2023-09-19T01:01:56;98321.78;;;20.53;73.84
71059;BME280;70265;47.576;19.270;2023-09-19T01:03:01;98325.50;;;20.52;74.27
71059;BME280;70265;47.576;19.270;2023-09-19T01:04:03;98327.59;;;20.50;74.37
71059;BME280;70265;47.576;19.270;2023-09-19T01:05:07;98324.34;;;20.48;74.30
71059;BME280;70265;47.576;19.270;2023-09-19T01:06:08;98325.38;;;20.47;74.63
71059;BME280;70265;47.576;19.270;2023-09-19T01:07:12;98329.31;;;20.44;75.00
71059;BME280;70265;47.576;19.270;2023-09-19T01:08:15;98316.22;;;20.43;74.90
71059;BME280;70265;47.576;19.270;2023-09-19T01:09:19;98314.81;;;20.40;75.51
71059;BME280;70265;47.576;19.270;2023-09-19T01:10:21;98328.16;;;20.40;75.28
71059;BME280;70265;47.576;19.270;2023-09-19T01:11:31;98327.34;;;20.40;75.38
71059;BME280;70265;47.576;19.270;2023-09-19T01:12:47;98327.53;;;20.38;75.44
71059;BME280;70265;47.576;19.270;2023-09-19T01:13:59;98329.78;;;20.41;75.02
71059;BME280;70265;47.576;19.270;2023-09-19T01:15:12;98327.91;;;20.42;75.04
71059;BME280;70265;47.576;19.270;2023-09-19T01:16:31;98329.53;;;20.43;74.98
71059;BME280;70265;47.576;19.270;2023-09-19T01:17:38;98330.00;;;20.40;74.97
71059;BME280;70265;47.576;19.270;2023-09-19T01:18:52;98325.13;;;20.37;75.56
71059;BME280;70265;47.576;19.270;2023-09-19T01:20:23;98332.44;;;20.41;75.19
71059;BME280;70265;47.576;19.270;2023-09-19T01:21:42;98327.78;;;20.37;75.45
71059;BME280;70265;47.576;19.270;2023-09-19T01:23:03;98328.38;;;20.39;75.26
71059;BME280;70265;47.576;19.270;2023-09-19T01:24:22;98326.50;;;20.39;75.35
71059;BME280;70265;47.576;19.270;2023-09-19T01:26:05;98323.84;;;20.39;75.24
71059;BME280;70265;47.576;19.270;2023-09-19T01:27:33;98326.97;;;20.36;75.92
71059;BME280;70265;47.576;19.270;2023-09-19T01:29:01;98324.16;;;20.31;75.90
71059;BME280;70265;47.576;19.270;2023-09-19T01:30:14;98327.28;;;20.28;76.20
71059;BME280;70265;47.576;19.270;2023-09-19T01:31:20;98328.34;;;20.27;76.40
71059;BME280;70265;47.576;19.270;2023-09-19T01:32:25;98317.44;;;20.28;76.32
71059;BME280;70265;47.576;19.270;2023-09-19T01:33:27;98326.25;;;20.29;76.27
71059;BME280;70265;47.576;19.270;2023-09-19T01:34:44;98318.69;;;20.26;76.91
71059;BME280;70265;47.576;19.270;2023-09-19T01:35:47;98324.22;;;20.24;76.61
71059;BME280;70265;47.576;19.270;2023-09-19T01:36:51;98322.28;;;20.20;77.01
71059;BME280;70265;47.576;19.270;2023-09-19T01:37:52;98317.53;;;20.22;77.17
71059;BME280;70265;47.576;19.270;2023-09-19T01:38:58;98317.31;;;20.23;76.94
71059;BME280;70265;47.576;19.270;2023-09-19T01:40:09;98323.88;;;20.21;77.40
71059;BME280;70265;47.576;19.270;2023-09-19T01:41:21;98315.88;;;20.21;76.98
71059;BME280;70265;47.576;19.270;2023-09-19T01:42:39;98327.13;;;20.23;77.03
71059;BME280;70265;47.576;19.270;2023-09-19T01:43:46;98322.84;;;20.22;76.97
71059;BME280;70265;47.576;19.270;2023-09-19T01:44:55;98314.75;;;20.17;77.46
71059;BME280;70265;47.576;19.270;2023-09-19T01:46:07;98318.06;;;20.12;78.09
71059;BME280;70265;47.576;19.270;2023-09-19T01:47:16;98317.03;;;20.13;78.28
71059;BME280;70265;47.576;19.270;2023-09-19T01:48:28;98314.94;;;20.15;77.97
71059;BME280;70265;47.576;19.270;2023-09-19T01:49:50;98311.34;;;20.10;78.18
71059;BME280;70265;47.576;19.270;2023-09-19T01:51:00;98307.41;;;20.12;78.10
71059;BME280;70265;47.576;19.270;2023-09-19T01:52:09;98313.56;;;20.13;78.23
71059;BME280;70265;47.576;19.270;2023-09-19T01:53:23;98308.25;;;20.13;78.19
71059;BME280;70265;47.576;19.270;2023-09-19T01:54:27;98305.78;;;20.11;78.22
71059;BME280;70265;47.576;19.270;2023-09-19T01:55:37;98307.06;;;20.09;78.66
71059;BME280;70265;47.576;19.270;2023-09-19T01:56:48;98307.88;;;20.09;78.78
71059;BME280;70265;47.576;19.270;2023-09-19T01:58:00;98298.25;;;20.08;78.60
71059;BME280;70265;47.576;19.270;2023-09-19T01:59:06;98309.88;;;20.14;78.62
71059;BME280;70265;47.576;19.270;2023-09-19T02:00:12;98307.53;;;20.06;78.84
71059;BME280;70265;47.576;19.270;2023-09-19T02:01:20;98298.97;;;20.04;79.11
71059;BME280;70265;47.576;19.270;2023-09-19T02:02:26;98301.75;;;20.09;78.68
71059;BME280;70265;47.576;19.270;2023-09-19T02:03:31;98307.06;;;20.09;78.56
71059;BME280;70265;47.576;19.270;2023-09-19T02:04:35;98302.75;;;20.08;79.09
71059;BME280;70265;47.576;19.270;2023-09-19T02:05:37;98303.69;;;20.02;79.12
71059;BME280;70265;47.576;19.270;2023-09-19T02:06:41;98298.13;;;20.03;79.27
71059;BME280;70265;47.576;19.270;2023-09-19T02:07:42;98306.78;;;19.99;79.55
71059;BME280;70265;47.576;19.270;2023-09-19T02:08:44;98305.97;;;19.98;79.43
71059;BME280;70265;47.576;19.270;2023-09-19T02:09:48;98303.91;;;20.00;79.13
71059;BME280;70265;47.576;19.270;2023-09-19T02:10:49;98311.75;;;19.95;79.74
71059;BME280;70265;47.576;19.270;2023-09-19T02:11:56;98312.78;;;19.94;79.97
71059;BME280;70265;47.576;19.270;2023-09-19T02:12:57;98310.38;;;19.93;80.04
71059;BME280;70265;47.576;19.270;2023-09-19T02:14:05;98309.56;;;19.92;79.97
71059;BME280;70265;47.576;19.270;2023-09-19T02:15:09;98310.56;;;19.91;79.91
71059;BME280;70265;47.576;19.270;2023-09-19T02:16:19;98309.03;;;19.83;80.88
71059;BME280;70265;47.576;19.270;2023-09-19T02:17:23;98307.44;;;19.83;80.51
71059;BME280;70265;47.576;19.270;2023-09-19T02:18:27;98307.44;;;19.83;80.88
71059;BME280;70265;47.576;19.270;2023-09-19T02:19:29;98306.38;;;19.83;80.63
71059;BME280;70265;47.576;19.270;2023-09-19T02:20:34;98306.38;;;19.83;80.80
71059;BME280;70265;47.576;19.270;2023-09-19T02:21:35;98305.78;;;19.81;80.42
71059;BME280;70265;47.576;19.270;2023-09-19T02:22:41;98310.31;;;19.81;80.81
71059;BME280;70265;47.576;19.270;2023-09-19T02:23:43;98311.00;;;19.76;81.28
71059;BME280;70265;47.576;19.270;2023-09-19T02:24:48;98306.69;;;19.75;81.03
71059;BME280;70265;47.576;19.270;2023-09-19T02:25:52;98310.38;;;19.74;81.31
71059;BME280;70265;47.576;19.270;2023-09-19T02:26:57;98310.38;;;19.74;81.28
71059;BME280;70265;47.576;19.270;2023-09-19T02:28:00;98304.94;;;19.69;81.64
71059;BME280;70265;47.576;19.270;2023-09-19T02:29:04;98307.59;;;19.69;81.84
71059;BME280;70265;47.576;19.270;2023-09-19T02:30:07;98302.66;;;19.73;81.29
71059;BME280;70265;47.576;19.270;2023-09-19T02:31:11;98309.56;;;19.74;81.57
71059;BME280;70265;47.576;19.270;2023-09-19T02:32:14;98306.69;;;19.75;81.33
71059;BME280;70265;47.576;19.270;2023-09-19T02:33:19;98302.66;;;19.73;81.48
71059;BME280;70265;47.576;19.270;2023-09-19T02:34:20;98303.00;;;19.76;81.42
71059;BME280;70265;47.576;19.270;2023-09-19T02:35:21;98305.44;;;19.78;81.32
71059;BME280;70265;47.576;19.270;2023-09-19T02:36:26;98303.00;;;19.76;81.23
71059;BME280;70265;47.576;19.270;2023-09-19T02:37:28;98303.81;;;19.77;81.17
71059;BME280;70265;47.576;19.270;2023-09-19T02:38:31;98303.81;;;19.77;81.55
71059;BME280;70265;47.576;19.270;2023-09-19T02:39:33;98306.91;;;19.74;81.46
71059;BME280;70265;47.576;19.270;2023-09-19T02:40:37;98306.53;;;19.70;81.74
71059;BME280;70265;47.576;19.270;2023-09-19T02:41:38;98297.75;;;19.70;82.07
71059;BME280;70265;47.576;19.270;2023-09-19T02:42:43;98301.00;;;19.72;81.84
71059;BME280;70265;47.576;19.270;2023-09-19T02:43:47;98302.66;;;19.73;81.79
71059;BME280;70265;47.576;19.270;2023-09-19T02:44:51;98297.91;;;19.75;81.87
71059;BME280;70265;47.576;19.270;2023-09-19T02:45:52;98294.88;;;19.71;82.08
71059;BME280;70265;47.576;19.270;2023-09-19T02:46:57;98299.00;;;19.67;82.38
71059;BME280;70265;47.576;19.270;2023-09-19T02:48:02;98305.72;;;19.70;82.41
71059;BME280;70265;47.576;19.270;2023-09-19T02:49:06;98301.22;;;19.70;82.19
71059;BME280;70265;47.576;19.270;2023-09-19T02:50:16;98303.31;;;19.68;82.65
71059;BME280;70265;47.576;19.270;2023-09-19T02:51:20;98301.69;;;19.67;82.52
71059;BME280;70265;47.576;19.270;2023-09-19T02:52:21;98302.13;;;19.64;82.76
71059;BME280;70265;47.576;19.270;2023-09-19T02:53:25;98300.75;;;19.62;82.98
71059;BME280;70265;47.576;19.270;2023-09-19T02:54:27;98306.88;;;19.62;82.72
71059;BME280;70265;47.576;19.270;2023-09-19T02:55:30;98308.09;;;19.60;82.90
71059;BME280;70265;47.576;19.270;2023-09-19T02:56:32;98309.75;;;19.61;82.81
71059;BME280;70265;47.576;19.270;2023-09-19T02:57:36;98306.13;;;19.55;83.30
71059;BME280;70265;47.576;19.270;2023-09-19T02:58:41;98302.50;;;19.50;84.03
71059;BME280;70265;47.576;19.270;2023-09-19T02:59:43;98307.16;;;19.54;83.45
71059;BME280;70265;47.576;19.270;2023-09-19T03:00:47;98302.78;;;19.60;83.21
71059;BME280;70265;47.576;19.270;2023-09-19T03:01:50;98304.41;;;19.61;82.95
71059;BME280;70265;47.576;19.270;2023-09-19T03:02:56;98306.97;;;19.56;83.30
71059;BME280;70265;47.576;19.270;2023-09-19T03:03:59;98300.81;;;19.55;83.27
71059;BME280;70265;47.576;19.270;2023-09-19T03:05:01;98300.44;;;19.52;83.65
71059;BME280;70265;47.576;19.270;2023-09-19T03:06:05;98299.19;;;19.54;83.58
71059;BME280;70265;47.576;19.270;2023-09-19T03:07:06;98295.03;;;19.58;83.38
71059;BME280;70265;47.576;19.270;2023-09-19T03:08:12;98295.25;;;19.57;83.25
71059;BME280;70265;47.576;19.270;2023-09-19T03:09:15;98302.00;;;19.59;83.18
71059;BME280;70265;47.576;19.270;2023-09-19T03:10:20;98303.69;;;19.54;83.80
71059;BME280;70265;47.576;19.270;2023-09-19T03:11:22;98304.13;;;19.51;83.79
71059;BME280;70265;47.576;19.270;2023-09-19T03:12:26;98298.81;;;19.51;83.75
71059;BME280;70265;47.576;19.270;2023-09-19T03:13:27;98289.72;;;19.58;83.50
71059;BME280;70265;47.576;19.270;2023-09-19T03:14:33;98298.72;;;19.57;83.56
71059;BME280;70265;47.576;19.270;2023-09-19T03:15:36;98293.50;;;19.51;83.81
71059;BME280;70265;47.576;19.270;2023-09-19T03:16:39;98299.63;;;19.51;83.60
71059;BME280;70265;47.576;19.270;2023-09-19T03:17:43;98291.41;;;19.53;83.75
71059;BME280;70265;47.576;19.270;2023-09-19T03:18:48;98279.97;;;19.52;83.89
71059;BME280;70265;47.576;19.270;2023-09-19T03:19:52;98296.97;;;19.51;83.84
71059;BME280;70265;47.576;19.270;2023-09-19T03:20:54;98296.31;;;19.56;83.60
71059;BME280;70265;47.576;19.270;2023-09-19T03:22:00;98296.41;;;19.49;84.19
71059;BME280;70265;47.576;19.270;2023-09-19T03:23:03;98298.81;;;19.51;84.08
71059;BME280;70265;47.576;19.270;2023-09-19T03:24:08;98295.94;;;19.52;83.86
71059;BME280;70265;47.576;19.270;2023-09-19T03:25:15;98303.94;;;19.52;83.96
71059;BME280;70265;47.576;19.270;2023-09-19T03:26:20;98298.38;;;19.54;83.85
71059;BME280;70265;47.576;19.270;2023-09-19T03:27:22;98295.13;;;19.52;84.42
71059;BME280;70265;47.576;19.270;2023-09-19T03:28:23;98300.81;;;19.55;84.72
71059;BME280;70265;47.576;19.270;2023-09-19T03:29:27;98298.97;;;19.56;84.17
71059;BME280;70265;47.576;19.270;2023-09-19T03:30:28;98299.41;;;19.53;84.52
71059;BME280;70265;47.576;19.270;2023-09-19T03:31:33;98304.38;;;19.49;84.34
71059;BME280;70265;47.576;19.270;2023-09-19T03:32:37;98299.63;;;19.51;84.35
71059;BME280;70265;47.576;19.270;2023-09-19T03:33:46;98306.22;;;19.49;84.20
71059;BME280;70265;47.576;19.270;2023-09-19T03:34:48;98302.06;;;19.53;84.24
71059;BME280;70265;47.576;19.270;2023-09-19T03:35:55;98300.44;;;19.52;84.28
71059;BME280;70265;47.576;19.270;2023-09-19T03:36:59;98298.00;;;19.50;84.52
71059;BME280;70265;47.576;19.270;2023-09-19T03:38:03;98302.88;;;19.53;84.32
71059;BME280;70265;47.576;19.270;2023-09-19T03:39:04;98304.13;;;19.51;84.22
71059;BME280;70265;47.576;19.270;2023-09-19T03:40:09;98302.28;;;19.51;84.23
71059;BME280;70265;47.576;19.270;2023-09-19T03:41:11;98308.28;;;19.47;84.48
71059;BME280;70265;47.576;19.270;2023-09-19T03:42:17;98304.44;;;19.43;85.05
71059;BME280;70265;47.576;19.270;2023-09-19T03:43:25;98302.59;;;19.43;84.61
71059;BME280;70265;47.576;19.270;2023-09-19T03:44:26;98307.09;;;19.43;84.83
71059;BME280;70265;47.576;19.270;2023-09-19T03:45:30;98301.41;;;19.39;84.64
71059;BME280;70265;47.576;19.270;2023-09-19T03:46:32;98305.47;;;19.42;84.61
71059;BME280;70265;47.576;19.270;2023-09-19T03:47:36;98306.72;;;19.39;85.02
71059;BME280;70265;47.576;19.270;2023-09-19T03:48:38;98298.94;;;19.38;85.25
71059;BME280;70265;47.576;19.270;2023-09-19T03:49:42;98300.22;;;19.35;85.00
71059;BME280;70265;47.576;19.270;2023-09-19T03:50:43;98292.34;;;19.40;84.81
71059;BME280;70265;47.576;19.270;2023-09-19T03:51:49;98297.91;;;19.39;84.92
71059;BME280;70265;47.576;19.270;2023-09-19T03:52:50;98299.41;;;19.35;85.00
71059;BME280;70265;47.576;19.270;2023-09-19T03:53:54;98299.16;;;19.36;85.05
71059;BME280;70265;47.576;19.270;2023-09-19T03:54:55;98300.22;;;19.35;85.05
71059;BME280;70265;47.576;19.270;2023-09-19T03:55:59;98302.25;;;19.33;85.59
71059;BME280;70265;47.576;19.270;2023-09-19T03:57:00;98303.31;;;19.32;85.90
71059;BME280;70265;47.576;19.270;2023-09-19T03:58:05;98303.91;;;19.34;85.88
71059;BME280;70265;47.576;19.270;2023-09-19T03:59:06;98303.31;;;19.32;85.74
71059;BME280;70265;47.576;19.270;2023-09-19T04:00:11;98300.66;;;19.32;86.34
71059;BME280;70265;47.576;19.270;2023-09-19T04:01:15;98302.13;;;19.28;86.57
71059;BME280;70265;47.576;19.270;2023-09-19T04:02:19;98305.72;;;19.33;86.00
71059;BME280;70265;47.576;19.270;2023-09-19T04:03:22;98306.56;;;19.34;85.95
71059;BME280;70265;47.576;19.270;2023-09-19T04:04:35;98308.03;;;19.30;85.83
71059;BME280;70265;47.576;19.270;2023-09-19T04:05:36;98307.44;;;19.28;86.48
71059;BME280;70265;47.576;19.270;2023-09-19T04:06:40;98308.63;;;19.32;86.24
71059;BME280;70265;47.576;19.270;2023-09-19T04:07:43;98309.06;;;19.29;86.75
71059;BME280;70265;47.576;19.270;2023-09-19T04:08:47;98303.97;;;19.27;86.95
71059;BME280;70265;47.576;19.270;2023-09-19T04:09:49;98300.72;;;19.25;86.73
71059;BME280;70265;47.576;19.270;2023-09-19T04:10:56;98299.47;;;19.28;86.71
71059;BME280;70265;47.576;19.270;2023-09-19T04:11:57;98299.91;;;19.25;87.08
71059;BME280;70265;47.576;19.270;2023-09-19T04:13:01;98301.31;;;19.27;86.60
71059;BME280;70265;47.576;19.270;2023-09-19T04:14:03;98303.16;;;19.27;86.65
71059;BME280;70265;47.576;19.270;2023-09-19T04:15:08;98303.59;;;19.24;87.09
71059;BME280;70265;47.576;19.270;2023-09-19T04:16:13;98303.22;;;19.20;87.36
71059;BME280;70265;47.576;19.270;2023-09-19T04:17:18;98305.69;;;19.22;87.80
71059;BME280;70265;47.576;19.270;2023-09-19T04:18:19;98313.28;;;19.18;88.08
71059;BME280;70265;47.576;19.270;2023-09-19T04:19:24;98308.16;;;19.17;88.65
71059;BME280;70265;47.576;19.270;2023-09-19T04:20:25;98308.34;;;19.22;87.94
71059;BME280;70265;47.576;19.270;2023-09-19T04:21:29;98311.78;;;19.22;87.62
71059;BME280;70265;47.576;19.270;2023-09-19T04:22:30;98306.47;;;19.22;88.33
71059;BME280;70265;47.576;19.270;2023-09-19T04:23:36;98303.81;;;19.22;88.42
71059;BME280;70265;47.576;19.270;2023-09-19T04:24:37;98304.19;;;19.26;87.60
71059;BME280;70265;47.576;19.270;2023-09-19T04:25:41;98307.28;;;19.23;88.16
71059;BME280;70265;47.576;19.270;2023-09-19T04:26:42;98303.41;;;19.25;88.06
71059;BME280;70265;47.576;19.270;2023-09-19T04:27:46;98313.78;;;19.27;87.89
71059;BME280;70265;47.576;19.270;2023-09-19T04:28:48;98306.84;;;19.26;88.28
71059;BME280;70265;47.576;19.270;2023-09-19T04:29:53;98311.00;;;19.22;88.77
71059;BME280;70265;47.576;19.270;2023-09-19T04:30:57;98312.53;;;19.29;88.22
71059;BME280;70265;47.576;19.270;2023-09-19T04:32:01;98308.91;;;19.24;88.70
71059;BME280;70265;47.576;19.270;2023-09-19T04:33:05;98310.09;;;19.28;88.17
71059;BME280;70265;47.576;19.270;2023-09-19T04:34:09;98312.16;;;19.26;88.47
71059;BME280;70265;47.576;19.270;2023-09-19T04:35:13;98319.34;;;19.25;88.95
71059;BME280;70265;47.576;19.270;2023-09-19T04:36:17;98324.06;;;19.23;89.40
71059;BME280;70265;47.576;19.270;2023-09-19T04:37:19;98320.94;;;19.26;88.78
71059;BME280;70265;47.576;19.270;2023-09-19T04:38:23;98319.56;;;19.24;88.83
71059;BME280;70265;47.576;19.270;2023-09-19T04:39:27;98319.56;;;19.24;88.56
71059;BME280;70265;47.576;19.270;2023-09-19T04:40:28;98317.47;;;19.26;88.62
71059;BME280;70265;47.576;19.270;2023-09-19T04:41:33;98317.91;;;19.23;90.37
71059;BME280;70265;47.576;19.270;2023-09-19T04:42:34;98319.09;;;19.27;89.92
71059;BME280;70265;47.576;19.270;2023-09-19T04:43:35;98323.41;;;19.28;90.35
71059;BME280;70265;47.576;19.270;2023-09-19T04:44:39;98320.94;;;19.26;89.99
71059;BME280;70265;47.576;19.270;2023-09-19T04:45:41;98321.56;;;19.28;89.65
71059;BME280;70265;47.576;19.270;2023-09-19T04:46:45;98326.88;;;19.28;90.26
71059;BME280;70265;47.576;19.270;2023-09-19T04:47:46;98324.59;;;19.32;89.87
71059;BME280;70265;47.576;19.270;2023-09-19T04:48:50;98331.50;;;19.33;89.64
71059;BME280;70265;47.576;19.270;2023-09-19T04:49:51;98332.34;;;19.33;89.50
71059;BME280;70265;47.576;19.270;2023-09-19T04:50:55;98340.75;;;19.30;89.94
71059;BME280;70265;47.576;19.270;2023-09-19T04:51:56;98340.75;;;19.30;89.95
71059;BME280;70265;47.576;19.270;2023-09-19T04:53:00;98345.06;;;19.31;90.30
71059;BME280;70265;47.576;19.270;2023-09-19T04:54:02;98350.13;;;19.33;90.30
71059;BME280;70265;47.576;19.270;2023-09-19T04:55:14;98338.69;;;19.32;90.51
71059;BME280;70265;47.576;19.270;2023-09-19T04:56:17;98348.28;;;19.33;90.48
71059;BME280;70265;47.576;19.270;2023-09-19T04:57:21;98346.00;;;19.37;90.30
71059;BME280;70265;47.576;19.270;2023-09-19T04:58:23;98340.47;;;19.39;91.78
71059;BME280;70265;47.576;19.270;2023-09-19T04:59:27;98340.25;;;19.40;90.73
71059;BME280;70265;47.576;19.270;2023-09-19T05:00:29;98341.91;;;19.41;90.60
71059;BME280;70265;47.576;19.270;2023-09-19T05:01:35;98346.19;;;19.42;90.43
71059;BME280;70265;47.576;19.270;2023-09-19T05:02:37;98349.44;;;19.44;90.32
71059;BME280;70265;47.576;19.270;2023-09-19T05:03:40;98347.16;;;19.48;89.89
71059;BME280;70265;47.576;19.270;2023-09-19T05:04:41;98347.16;;;19.48;90.08
71059;BME280;70265;47.576;19.270;2023-09-19T05:05:45;98349.59;;;19.49;90.02
71059;BME280;70265;47.576;19.270;2023-09-19T05:06:46;98349.94;;;19.53;89.56
71059;BME280;70265;47.576;19.270;2023-09-19T05:07:51;98342.56;;;19.55;89.86
71059;BME280;70265;47.576;19.270;2023-09-19T05:08:54;98349.28;;;19.57;89.68
71059;BME280;70265;47.576;19.270;2023-09-19T05:09:58;98350.09;;;19.58;89.48
71059;BME280;70265;47.576;19.270;2023-09-19T05:11:04;98348.84;;;19.60;89.37
71059;BME280;70265;47.576;19.270;2023-09-19T05:12:09;98349.44;;;19.62;89.17
71059;BME280;70265;47.576;19.270;2023-09-19T05:13:11;98346.53;;;19.64;89.19
71059;BME280;70265;47.576;19.270;2023-09-19T05:14:16;98348.19;;;19.65;89.17
71059;BME280;70265;47.576;19.270;2023-09-19T05:15:17;98346.34;;;19.65;89.11
71059;BME280;70265;47.576;19.270;2023-09-19T05:16:18;98348.53;;;19.68;88.88
71059;BME280;70265;47.576;19.270;2023-09-19T05:17:22;98352.84;;;19.69;88.81
71059;BME280;70265;47.576;19.270;2023-09-19T05:18:25;98354.44;;;19.70;88.88
71059;BME280;70265;47.576;19.270;2023-09-19T05:19:26;98347.72;;;19.68;88.39
71059;BME280;70265;47.576;19.270;2023-09-19T05:20:30;98351.22;;;19.68;88.66
71059;BME280;70265;47.576;19.270;2023-09-19T05:21:33;98352.25;;;19.67;88.56
71059;BME280;70265;47.576;19.270;2023-09-19T05:22:36;98357.56;;;19.67;87.95
71059;BME280;70265;47.576;19.270;2023-09-19T05:23:40;98356.97;;;19.65;88.19
71059;BME280;70265;47.576;19.270;2023-09-19T05:24:41;98363.50;;;19.69;88.15
71059;BME280;70265;47.576;19.270;2023-09-19T05:25:45;98357.03;;;19.77;87.77
71059;BME280;70265;47.576;19.270;2023-09-19T05:26:49;98362.91;;;19.97;86.60
71059;BME280;70265;47.576;19.270;2023-09-19T05:27:53;98369.06;;;19.98;86.48
71059;BME280;70265;47.576;19.270;2023-09-19T05:28:54;98368.25;;;19.97;86.45
71059;BME280;70265;47.576;19.270;2023-09-19T05:29:58;98378.09;;;19.97;86.41
71059;BME280;70265;47.576;19.270;2023-09-19T05:31:00;98363.91;;;19.85;86.76
71059;BME280;70265;47.576;19.270;2023-09-19T05:32:05;98367.16;;;19.87;86.62
71059;BME280;70265;47.576;19.270;2023-09-19T05:33:06;98372.25;;;19.88;86.44
71059;BME280;70265;47.576;19.270;2023-09-19T05:34:10;98376.31;;;19.91;86.31
71059;BME280;70265;47.576;19.270;2023-09-19T05:35:11;98368.94;;;19.93;85.80
71059;BME280;70265;47.576;19.270;2023-09-19T05:36:15;98367.09;;;19.93;86.03
71059;BME280;70265;47.576;19.270;2023-09-19T05:37:17;98371.00;;;19.91;86.05
71059;BME280;70265;47.576;19.270;2023-09-19T05:38:21;98375.72;;;19.89;86.13
71059;BME280;70265;47.576;19.270;2023-09-19T05:39:22;98367.66;;;19.77;86.46